CheckWX is a tool to help pilots better visualize weather data.  It is not intended as a substitute for an official pre-flight weather briefing.

23:55:28 UTC

ESMS TAF
Malmö Sturup Airport
Malmö, Sweden
TAF ESMS 082305Z 0900/0924 25008KT 9999 SCT030

Jul-9@
00:00 UTC

Jul-9 @ 00:00 UTC

Jul-10@
00:00 UTC

Jul-10 @ 00:00 UTC

TAF ESMS 082305Z 0900/0924 25008KT 9999 SCT030
Wind
  • 250° at 8 KTS
Cloud Levels
  • Scattered at 3,000' AGL